createdAt,value
2024-04-30T00:04:11.128Z,1001.03
2024-04-30T00:14:19.078Z,1001.01
2024-04-30T00:24:26.051Z,1000.96
2024-04-30T00:34:33.428Z,1000.98
2024-04-30T00:44:40.473Z,1000.93
2024-04-30T00:54:47.886Z,1000.91
2024-04-30T01:04:56.126Z,1000.81
2024-04-30T01:15:02.654Z,1000.7
2024-04-30T01:25:09.825Z,1000.65
2024-04-30T01:35:16.806Z,1000.64
2024-04-30T01:45:23.742Z,1000.56
2024-04-30T01:55:31.531Z,1000.5
2024-04-30T02:05:39.195Z,1000.51
2024-04-30T02:15:48.850Z,1000.43
2024-04-30T02:25:55.246Z,1000.43
2024-04-30T02:36:02.485Z,1000.12
2024-04-30T02:46:09.242Z,1000.04
2024-04-30T02:56:16.550Z,1000.02
2024-04-30T03:06:23.789Z,999.79
2024-04-30T03:16:31.507Z,999.62
2024-04-30T03:26:38.804Z,999.53
2024-04-30T03:36:46.287Z,999.51
2024-04-30T03:46:53.771Z,999.48
2024-04-30T03:57:00.930Z,999.5
2024-04-30T04:07:08.057Z,999.55
2024-04-30T04:17:15.831Z,999.54
2024-04-30T04:27:23.376Z,999.43
2024-04-30T04:37:31.054Z,999.49
2024-04-30T04:47:38.701Z,999.45
2024-04-30T04:57:46.435Z,999.45
2024-04-30T05:07:53.370Z,999.39
2024-04-30T05:18:00.563Z,999.44
2024-04-30T05:28:08.536Z,999.36
2024-04-30T05:38:15.751Z,999.42
2024-04-30T05:48:22.974Z,999.26
2024-04-30T05:58:30.199Z,999.2
2024-04-30T06:08:42.175Z,999.05
2024-04-30T06:18:49.692Z,999.05
2024-04-30T06:28:57.043Z,998.96
2024-04-30T06:39:04.632Z,998.99
2024-04-30T06:49:12.175Z,998.84
2024-04-30T06:59:19.799Z,998.79
2024-04-30T07:09:27.147Z,998.73
2024-04-30T07:19:35.525Z,998.52
2024-04-30T07:29:43.798Z,998.44
2024-04-30T07:39:51.223Z,998.41
2024-04-30T07:49:58.608Z,998.32
2024-04-30T08:00:11.864Z,998.55
2024-04-30T08:10:25.623Z,998.3
2024-04-30T08:20:34.030Z,998.16
2024-04-30T08:30:42.580Z,998.09
2024-04-30T08:40:51.582Z,998.08
2024-04-30T08:50:59.337Z,998.05
2024-04-30T09:01:10.519Z,997.8
2024-04-30T09:11:18.821Z,997.75
2024-04-30T09:21:27.586Z,997.76
2024-04-30T09:31:35.564Z,997.67
2024-04-30T09:41:44.111Z,997.58
2024-04-30T09:51:52.260Z,997.42
2024-04-30T10:01:59.846Z,997.41
2024-04-30T10:12:14.018Z,997.39
2024-04-30T10:22:24.447Z,997.28
2024-04-30T10:32:32.585Z,997.24
2024-04-30T10:42:40.700Z,997.15
2024-04-30T10:52:48.695Z,996.99
2024-04-30T11:02:56.190Z,997.02
2024-04-30T11:13:03.983Z,996.85
2024-04-30T11:23:12.516Z,996.75
2024-04-30T11:33:20.555Z,996.64
2024-04-30T11:43:29.524Z,996.58
2024-04-30T11:53:39.867Z,996.41
2024-04-30T12:03:48.088Z,996.27
2024-04-30T12:13:57.212Z,996.17
2024-04-30T12:24:06.133Z,996.15
2024-04-30T12:34:15.226Z,996.15
2024-04-30T12:44:24.101Z,996.01
2024-04-30T12:54:32.776Z,995.91
2024-04-30T13:04:41.541Z,995.79
2024-04-30T13:14:49.930Z,995.62
2024-04-30T13:24:58.090Z,995.45
2024-04-30T13:35:06.833Z,995.33
2024-04-30T13:45:14.647Z,995.32
2024-04-30T13:55:23.159Z,995.26
2024-04-30T14:05:38.567Z,995.18
2024-04-30T14:15:46.950Z,995.08
2024-04-30T14:25:55.328Z,995.02
2024-04-30T14:36:03.361Z,994.98
2024-04-30T14:46:11.854Z,994.96
2024-04-30T14:56:20.173Z,994.82
2024-04-30T15:06:28.180Z,994.58
2024-04-30T15:16:36.337Z,994.5
2024-04-30T15:26:44.160Z,994.37
2024-04-30T15:36:52.072Z,994.19
2024-04-30T15:46:59.534Z,994.13
2024-04-30T15:57:07.703Z,994.01
2024-04-30T16:07:15.298Z,993.86
2024-04-30T16:17:23.471Z,993.89
2024-04-30T16:27:31.655Z,993.84
2024-04-30T16:37:37.476Z,993.81
2024-04-30T16:47:43.463Z,993.83
2024-04-30T16:57:50.409Z,993.87
2024-04-30T17:07:57.758Z,993.79
2024-04-30T17:18:05.348Z,993.83
2024-04-30T17:28:12.824Z,993.83
2024-04-30T17:38:20.023Z,993.8
2024-04-30T17:48:27.798Z,993.76
2024-04-30T17:58:35.672Z,993.9
2024-04-30T18:08:42.647Z,993.86
2024-04-30T18:18:50.692Z,993.85
2024-04-30T18:28:58.037Z,993.88
2024-04-30T18:39:05.754Z,993.91
2024-04-30T18:49:13.997Z,993.93
2024-04-30T18:59:21.455Z,993.96
2024-04-30T19:09:29.072Z,994
2024-04-30T19:19:37.104Z,993.96
2024-04-30T19:29:44.550Z,993.94
2024-04-30T19:39:52.318Z,993.94
2024-04-30T19:50:00.306Z,993.95
2024-04-30T20:00:07.693Z,993.85
2024-04-30T20:10:14.871Z,993.71
2024-04-30T20:20:22.126Z,993.71
2024-04-30T20:30:29.146Z,993.59
2024-04-30T20:40:37.033Z,993.47
2024-04-30T20:50:44.610Z,993.44
2024-04-30T21:00:53.562Z,993.41
2024-04-30T21:11:02.403Z,993.38
2024-04-30T21:21:09.987Z,993.32
2024-04-30T21:31:17.422Z,993.2
2024-04-30T21:41:24.611Z,993.13
2024-04-30T21:51:31.979Z,993.09
2024-04-30T22:01:39.971Z,992.96
2024-04-30T22:11:48.098Z,992.88
2024-04-30T22:21:55.296Z,992.79
2024-04-30T22:32:02.489Z,992.82
2024-04-30T22:42:09.628Z,992.71
2024-04-30T22:52:16.888Z,992.72
2024-04-30T23:02:24.179Z,992.62
2024-04-30T23:12:31.389Z,992.63
2024-04-30T23:22:38.946Z,992.52
2024-04-30T23:32:46.284Z,992.41
2024-04-30T23:42:54.017Z,992.39
2024-04-30T23:53:01.564Z,992.3
